Time;durP1;ratioP1;P1;durP2;ratioP2;P2;SDS_P1;SDS_P2;PMS_P1;PMS_P2;Temp;Humidity;BMP_temperature;BMP_pressure;BME280_temperature;BME280_humidity;BME280_pressure;Samples;Min_cycle;Max_cycle;Signal;HPM_P1;HPM_P2
2023/09/14 00:00:31;;;;;;;8.38;7.50;;;;;;;;;;5021688;28;20243;-76
2023/09/14 00:02:59;;;;;;;21.17;14.73;;;;;;;;;;5010140;28;20220;-74
2023/09/14 00:05:27;;;;;;;16.58;11.95;;;;;;;;;;4992766;28;20203;-75
2023/09/14 00:07:54;;;;;;;10.32;9.18;;;;;;;;;;5009217;28;20383;-74
2023/09/14 00:10:21;;;;;;;10.95;9.07;;;;;;;;;;4993050;28;20219;-75
2023/09/14 00:12:51;;;;;;;9.63;8.20;;;;;;;;;;5018209;28;20223;-76
2023/09/14 00:15:18;;;;;;;8.55;7.75;;;;;;;;;;5006321;28;20246;-75
2023/09/14 00:17:46;;;;;;;9.07;8.25;;;;;;;;;;5010918;28;20217;-74
2023/09/14 00:20:23;;;;;;;8.88;8.00;;;;;;;;;;5010086;28;20231;-74
2023/09/14 00:22:51;;;;;;;8.88;8.00;;;;;;;;;;5010564;28;20230;-74
2023/09/14 00:25:18;;;;;;;9.35;8.35;;;;;;;;;;4998765;28;20476;-75
2023/09/14 00:27:46;;;;;;;8.90;8.00;;;;;;;;;;5001782;28;20629;-75
2023/09/14 00:30:13;;;;;;;9.65;8.15;;;;;;;;;;4990709;28;20209;-76
2023/09/14 00:32:42;;;;;;;11.23;8.18;;;;;;;;;;4991524;28;20776;-76
2023/09/14 00:35:10;;;;;;;8.75;7.85;;;;;;;;;;5010372;28;20211;-75
2023/09/14 00:37:38;;;;;;;9.43;8.43;;;;;;;;;;4993059;28;20250;-75
2023/09/14 00:40:06;;;;;;;8.88;7.97;;;;;;;;;;5007305;28;20220;-74
2023/09/14 00:42:41;;;;;;;10.18;7.53;;;;;;;;;;4983884;28;20259;-74
2023/09/14 00:45:10;;;;;;;8.65;7.75;;;;;;;;;;4988118;28;20489;-74
2023/09/14 00:47:37;;;;;;;9.18;8.27;;;;;;;;;;4990986;28;20658;-74
2023/09/14 00:50:05;;;;;;;17.40;13.82;;;;;;;;;;4994771;28;20656;-76
2023/09/14 00:52:34;;;;;;;32.45;19.63;;;;;;;;;;4994121;28;20227;-76
2023/09/14 00:55:02;;;;;;;15.48;11.45;;;;;;;;;;4990537;28;20456;-75
2023/09/14 00:57:30;;;;;;;15.50;10.65;;;;;;;;;;4997216;28;20208;-74
2023/09/14 00:59:57;;;;;;;17.95;13.23;;;;;;;;;;4990707;28;20613;-74
2023/09/14 01:02:26;;;;;;;15.15;11.05;;;;;;;;;;4997147;28;20231;-76
2023/09/14 01:04:53;;;;;;;15.35;12.00;;;;;;;;;;5010431;28;20234;-74
2023/09/14 01:07:21;;;;;;;15.10;11.75;;;;;;;;;;5002639;28;20668;-74
2023/09/14 01:09:48;;;;;;;10.13;9.07;;;;;;;;;;4990539;28;20216;-78
2023/09/14 01:12:15;;;;;;;15.30;11.07;;;;;;;;;;4991558;28;20247;-74
2023/09/14 01:14:46;;;;;;;14.80;11.05;;;;;;;;;;5004118;28;20723;-73
2023/09/14 01:17:15;;;;;;;9.18;7.63;;;;;;;;;;5003832;28;20208;-74
2023/09/14 01:19:42;;;;;;;8.00;7.20;;;;;;;;;;4973211;28;20607;-75
2023/09/14 01:22:29;;;;;;;8.30;7.43;;;;;;;;;;4991615;28;20232;-76
2023/09/14 01:25:00;;;;;;;12.85;10.90;;;;;;;;;;5002677;28;20623;-75
2023/09/14 01:27:27;;;;;;;10.13;8.70;;;;;;;;;;5002265;28;20248;-74
2023/09/14 01:29:56;;;;;;;13.73;11.50;;;;;;;;;;5001085;28;20220;-75
2023/09/14 01:32:25;;;;;;;11.43;10.23;;;;;;;;;;5002915;28;20224;-75
2023/09/14 01:34:53;;;;;;;12.98;11.63;;;;;;;;;;4991633;28;20223;-74
2023/09/14 01:37:21;;;;;;;12.98;11.32;;;;;;;;;;4979117;28;20207;-75
2023/09/14 01:39:48;;;;;;;13.32;11.18;;;;;;;;;;4994620;28;20255;-74
2023/09/14 01:42:16;;;;;;;12.65;11.25;;;;;;;;;;5004615;28;20224;-76
2023/09/14 01:44:43;;;;;;;11.88;10.68;;;;;;;;;;4999319;28;20255;-76
2023/09/14 01:47:11;;;;;;;18.30;13.80;;;;;;;;;;4978148;28;20595;-76
2023/09/14 01:49:38;;;;;;;14.32;12.77;;;;;;;;;;5007053;28;20246;-75
2023/09/14 01:52:05;;;;;;;13.70;12.23;;;;;;;;;;5001874;28;20227;-74
2023/09/14 01:54:33;;;;;;;14.82;12.60;;;;;;;;;;4994800;28;20208;-76
2023/09/14 01:57:00;;;;;;;16.67;14.63;;;;;;;;;;4993225;28;20611;-73
2023/09/14 01:59:27;;;;;;;17.70;15.02;;;;;;;;;;5002513;28;20278;-75
2023/09/14 02:01:55;;;;;;;20.10;15.93;;;;;;;;;;4998690;28;20285;-75
2023/09/14 02:04:22;;;;;;;20.05;16.40;;;;;;;;;;4973877;28;20679;-73
2023/09/14 02:06:49;;;;;;;22.90;17.77;;;;;;;;;;4985260;28;20208;-77
2023/09/14 02:09:17;;;;;;;24.33;18.10;;;;;;;;;;4996620;28;20204;-75
2023/09/14 02:11:44;;;;;;;23.45;17.75;;;;;;;;;;4982060;28;20231;-76
2023/09/14 02:14:11;;;;;;;24.23;18.65;;;;;;;;;;4996932;28;20820;-75
2023/09/14 02:16:38;;;;;;;22.38;17.83;;;;;;;;;;4998447;28;20215;-74
2023/09/14 02:19:05;;;;;;;24.95;19.08;;;;;;;;;;5001642;28;20211;-75
2023/09/14 02:21:33;;;;;;;23.02;18.02;;;;;;;;;;5001539;28;20378;-77
2023/09/14 02:24:01;;;;;;;22.35;17.55;;;;;;;;;;5000918;28;20680;-73
2023/09/14 02:26:28;;;;;;;22.27;18.02;;;;;;;;;;5008626;28;20290;-74
2023/09/14 02:28:55;;;;;;;21.08;17.35;;;;;;;;;;4982902;28;20692;-74
2023/09/14 02:31:23;;;;;;;21.17;18.08;;;;;;;;;;5001312;28;20234;-74
2023/09/14 02:33:50;;;;;;;23.38;19.55;;;;;;;;;;5000795;28;20204;-75
2023/09/14 02:36:18;;;;;;;23.65;19.38;;;;;;;;;;4996352;28;20208;-74
2023/09/14 02:38:45;;;;;;;27.52;22.20;;;;;;;;;;5006444;28;20211;-74
2023/09/14 02:41:13;;;;;;;27.30;20.52;;;;;;;;;;5004575;28;20227;-74
2023/09/14 02:43:40;;;;;;;29.50;22.00;;;;;;;;;;5002126;28;20211;-75
2023/09/14 02:46:08;;;;;;;27.95;21.33;;;;;;;;;;4980401;28;20650;-75
2023/09/14 02:48:36;;;;;;;29.98;21.95;;;;;;;;;;4987186;28;20289;-75
2023/09/14 02:51:03;;;;;;;29.90;21.20;;;;;;;;;;5002022;28;20230;-75
2023/09/14 02:53:30;;;;;;;32.13;22.55;;;;;;;;;;4994406;28;20215;-75
2023/09/14 02:55:58;;;;;;;25.77;21.00;;;;;;;;;;4990990;28;20212;-76
2023/09/14 02:58:25;;;;;;;30.75;21.95;;;;;;;;;;5004105;28;20259;-75
2023/09/14 03:00:52;;;;;;;29.90;22.40;;;;;;;;;;5009740;28;20429;-77
2023/09/14 03:03:19;;;;;;;31.27;22.95;;;;;;;;;;5005090;28;20215;-73
2023/09/14 03:05:48;;;;;;;32.60;23.45;;;;;;;;;;4998454;28;20392;-74
2023/09/14 03:08:15;;;;;;;28.50;21.85;;;;;;;;;;4990291;28;20696;-76
2023/09/14 03:10:43;;;;;;;29.27;22.90;;;;;;;;;;5007851;28;20211;-76
2023/09/14 03:13:11;;;;;;;33.20;22.67;;;;;;;;;;4983160;28;20204;-75
2023/09/14 03:15:38;;;;;;;28.95;21.45;;;;;;;;;;5008480;28;20715;-75
2023/09/14 03:18:06;;;;;;;31.52;23.05;;;;;;;;;;5001667;28;20204;-74
2023/09/14 03:20:33;;;;;;;34.42;24.95;;;;;;;;;;4996897;28;20681;-75
2023/09/14 03:23:02;;;;;;;36.60;25.92;;;;;;;;;;4996929;28;20216;-76
2023/09/14 03:25:29;;;;;;;34.75;24.77;;;;;;;;;;5031507;23;20615;-81
2023/09/14 03:27:57;;;;;;;32.03;23.45;;;;;;;;;;5048181;28;20202;-80
2023/09/14 03:30:24;;;;;;;34.88;24.75;;;;;;;;;;5048691;28;20222;-79
2023/09/14 03:32:51;;;;;;;29.70;21.48;;;;;;;;;;5028780;28;20272;-81
2023/09/14 03:35:19;;;;;;;29.02;21.60;;;;;;;;;;5023835;28;20215;-79
2023/09/14 03:37:46;;;;;;;30.30;20.98;;;;;;;;;;5023624;28;20207;-78
2023/09/14 03:40:13;;;;;;;25.80;20.10;;;;;;;;;;5030058;28;20258;-78
2023/09/14 03:42:40;;;;;;;28.15;20.27;;;;;;;;;;5031080;28;20298;-78
2023/09/14 03:45:08;;;;;;;24.48;19.00;;;;;;;;;;5029860;28;20308;-78
2023/09/14 03:47:36;;;;;;;24.60;18.40;;;;;;;;;;5033358;28;20202;-81
2023/09/14 03:50:03;;;;;;;27.08;16.90;;;;;;;;;;5033352;28;20294;-81
2023/09/14 03:52:30;;;;;;;27.58;19.63;;;;;;;;;;5026628;28;20668;-80
2023/09/14 03:54:57;;;;;;;24.40;18.02;;;;;;;;;;5027999;28;20203;-82
2023/09/14 03:57:25;;;;;;;25.33;18.38;;;;;;;;;;5032567;28;20213;-80
2023/09/14 03:59:52;;;;;;;47.33;28.70;;;;;;;;;;5033739;28;20284;-81
2023/09/14 04:02:19;;;;;;;26.90;18.52;;;;;;;;;;5033565;28;20227;-81
2023/09/14 04:04:47;;;;;;;28.55;20.05;;;;;;;;;;5034232;28;20250;-80
2023/09/14 04:07:14;;;;;;;27.63;19.45;;;;;;;;;;5033204;28;20206;-81
2023/09/14 04:09:41;;;;;;;26.02;19.80;;;;;;;;;;5027572;28;20211;-81
2023/09/14 04:12:09;;;;;;;35.95;23.15;;;;;;;;;;5032921;28;20295;-82
2023/09/14 04:14:36;;;;;;;32.22;21.35;;;;;;;;;;5031916;28;20628;-81
2023/09/14 04:17:04;;;;;;;32.50;21.70;;;;;;;;;;5026379;28;20268;-81
2023/09/14 04:19:31;;;;;;;32.60;21.20;;;;;;;;;;5033844;28;20210;-81
2023/09/14 04:21:58;;;;;;;28.13;20.55;;;;;;;;;;5033503;28;20257;-82
2023/09/14 04:24:27;;;;;;;26.48;19.25;;;;;;;;;;5033483;28;20207;-81
2023/09/14 04:26:54;;;;;;;24.80;18.20;;;;;;;;;;5031695;28;21579;-81
2023/09/14 04:29:21;;;;;;;26.60;19.15;;;;;;;;;;5032442;28;20215;-79
2023/09/14 04:31:48;;;;;;;25.58;18.98;;;;;;;;;;5031123;28;20230;-80
2023/09/14 04:34:16;;;;;;;26.05;18.90;;;;;;;;;;5025927;28;20838;-80
2023/09/14 04:36:43;;;;;;;28.73;19.75;;;;;;;;;;5031815;28;20258;-81
2023/09/14 04:39:12;;;;;;;29.55;19.35;;;;;;;;;;5031984;28;20207;-81
2023/09/14 04:41:40;;;;;;;30.70;20.15;;;;;;;;;;5019110;28;20235;-80
2023/09/14 04:44:07;;;;;;;30.88;20.42;;;;;;;;;;5031633;28;20232;-79
2023/09/14 04:46:34;;;;;;;25.98;18.45;;;;;;;;;;5025493;28;21065;-81
2023/09/14 04:49:02;;;;;;;27.23;18.92;;;;;;;;;;5029987;28;20619;-81
2023/09/14 04:51:29;;;;;;;29.85;20.10;;;;;;;;;;5030989;28;20605;-80
2023/09/14 04:53:56;;;;;;;25.90;18.58;;;;;;;;;;5031896;28;20264;-79
2023/09/14 04:56:24;;;;;;;24.45;18.25;;;;;;;;;;5032498;28;20206;-81
2023/09/14 04:58:51;;;;;;;23.25;17.25;;;;;;;;;;5025211;28;20247;-81
2023/09/14 05:01:18;;;;;;;27.50;17.88;;;;;;;;;;5031580;28;20314;-81
2023/09/14 05:03:45;;;;;;;22.50;16.13;;;;;;;;;;5031622;28;20214;-82
2023/09/14 05:06:13;;;;;;;26.05;16.40;;;;;;;;;;5025595;28;20604;-79
2023/09/14 05:08:40;;;;;;;22.45;16.33;;;;;;;;;;5002208;28;20199;-80
2023/09/14 05:11:07;;;;;;;24.33;17.27;;;;;;;;;;5031240;28;20698;-79
2023/09/14 05:13:34;;;;;;;25.20;16.80;;;;;;;;;;5032163;28;20215;-80
2023/09/14 05:16:02;;;;;;;22.63;15.73;;;;;;;;;;5030949;28;20215;-81
2023/09/14 05:18:30;;;;;;;25.42;16.50;;;;;;;;;;5031013;28;20261;-82
2023/09/14 05:20:57;;;;;;;23.80;16.85;;;;;;;;;;5024718;28;20321;-80
2023/09/14 05:23:24;;;;;;;25.52;17.52;;;;;;;;;;5031213;28;20202;-81
2023/09/14 05:25:51;;;;;;;26.08;17.27;;;;;;;;;;4991399;28;1130332;-81
2023/09/14 05:28:18;;;;;;;22.13;17.00;;;;;;;;;;5031074;28;20265;-81
2023/09/14 05:30:46;;;;;;;24.42;17.30;;;;;;;;;;5042247;22;20238;-76
2023/09/14 05:33:14;;;;;;;23.00;17.65;;;;;;;;;;5007796;28;20218;-76
2023/09/14 05:35:43;;;;;;;26.45;18.85;;;;;;;;;;5010173;28;20207;-75
2023/09/14 05:38:11;;;;;;;31.40;18.92;;;;;;;;;;5004597;28;20200;-76
2023/09/14 05:40:38;;;;;;;29.33;19.50;;;;;;;;;;5009506;28;20319;-75
2023/09/14 05:43:05;;;;;;;25.30;17.58;;;;;;;;;;5008547;28;20230;-75
2023/09/14 05:45:33;;;;;;;21.75;16.95;;;;;;;;;;5010028;28;20290;-75
2023/09/14 05:48:04;;;;;;;23.55;16.65;;;;;;;;;;4992549;28;20207;-75
2023/09/14 05:50:35;;;;;;;19.77;15.07;;;;;;;;;;4992320;28;20211;-76
2023/09/14 05:53:03;;;;;;;18.75;14.02;;;;;;;;;;4989682;28;20680;-75
2023/09/14 05:55:30;;;;;;;18.27;14.38;;;;;;;;;;5009930;28;20210;-74
2023/09/14 05:57:57;;;;;;;23.83;16.58;;;;;;;;;;5005709;28;20230;-76
2023/09/14 06:00:25;;;;;;;20.85;15.88;;;;;;;;;;4986670;28;20231;-75
2023/09/14 06:02:55;;;;;;;21.55;15.68;;;;;;;;;;5004259;28;20220;-78
2023/09/14 06:05:22;;;;;;;19.85;15.23;;;;;;;;;;4997393;28;20693;-75
2023/09/14 06:07:55;;;;;;;19.38;14.02;;;;;;;;;;5009254;28;20211;-76
2023/09/14 06:10:22;;;;;;;20.35;13.50;;;;;;;;;;4987323;28;20582;-77
2023/09/14 06:12:51;;;;;;;17.52;13.70;;;;;;;;;;5004018;28;20654;-77
2023/09/14 06:15:18;;;;;;;19.58;14.73;;;;;;;;;;4991771;28;20200;-76
2023/09/14 06:17:47;;;;;;;18.80;14.70;;;;;;;;;;5009303;28;20207;-76
2023/09/14 06:20:15;;;;;;;18.70;13.82;;;;;;;;;;5011273;28;20226;-75
2023/09/14 06:22:42;;;;;;;19.92;13.93;;;;;;;;;;4989029;28;20228;-74
2023/09/14 06:25:09;;;;;;;17.98;13.57;;;;;;;;;;5008631;28;20200;-75
2023/09/14 06:27:37;;;;;;;16.40;13.07;;;;;;;;;;5005940;28;20203;-74
2023/09/14 06:30:06;;;;;;;17.60;14.20;;;;;;;;;;4991589;28;20668;-74
2023/09/14 06:32:33;;;;;;;18.80;14.73;;;;;;;;;;5008714;28;20735;-74
2023/09/14 06:35:01;;;;;;;16.20;12.80;;;;;;;;;;5005987;28;20538;-74
2023/09/14 06:37:28;;;;;;;15.20;12.40;;;;;;;;;;5013082;28;20664;-74
2023/09/14 06:39:56;;;;;;;15.40;12.77;;;;;;;;;;5004615;28;20246;-74
2023/09/14 06:42:23;;;;;;;15.95;13.52;;;;;;;;;;5008963;28;20231;-74
2023/09/14 06:44:51;;;;;;;15.07;12.73;;;;;;;;;;5009085;28;20590;-76
2023/09/14 06:47:18;;;;;;;16.58;13.10;;;;;;;;;;5008638;28;20207;-76
2023/09/14 06:49:45;;;;;;;14.57;12.70;;;;;;;;;;5009158;28;20293;-75
2023/09/14 06:52:13;;;;;;;16.05;13.15;;;;;;;;;;5007206;28;20231;-76
2023/09/14 06:54:40;;;;;;;16.67;13.02;;;;;;;;;;5009733;28;20278;-74
2023/09/14 06:57:07;;;;;;;18.02;14.43;;;;;;;;;;5011822;28;20200;-75
2023/09/14 06:59:34;;;;;;;17.42;14.43;;;;;;;;;;5012664;28;20200;-76
2023/09/14 07:02:02;;;;;;;17.10;14.10;;;;;;;;;;5011835;28;20614;-76
2023/09/14 07:04:30;;;;;;;17.98;13.55;;;;;;;;;;5011777;28;20207;-75
2023/09/14 07:06:57;;;;;;;15.05;12.98;;;;;;;;;;5011762;28;20556;-75
2023/09/14 07:09:25;;;;;;;13.27;11.35;;;;;;;;;;5012538;28;20503;-76
2023/09/14 07:11:52;;;;;;;12.82;11.02;;;;;;;;;;5012561;28;20511;-76
2023/09/14 07:14:20;;;;;;;15.38;11.82;;;;;;;;;;4994582;28;20215;-75
2023/09/14 07:16:47;;;;;;;12.45;11.10;;;;;;;;;;4994446;28;20199;-75
2023/09/14 07:19:15;;;;;;;14.90;13.40;;;;;;;;;;5012012;28;20214;-75
2023/09/14 07:21:42;;;;;;;13.95;12.38;;;;;;;;;;4989893;28;20652;-76
2023/09/14 07:24:10;;;;;;;13.45;11.68;;;;;;;;;;5006906;28;20223;-75
2023/09/14 07:26:39;;;;;;;15.00;13.40;;;;;;;;;;5008503;28;20261;-74
2023/09/14 07:29:07;;;;;;;15.23;12.82;;;;;;;;;;5016583;28;20204;-75
2023/09/14 07:31:35;;;;;;;12.88;11.10;;;;;;;;;;4989990;28;20525;-76
2023/09/14 07:34:03;;;;;;;13.57;11.52;;;;;;;;;;5011487;28;20234;-77
2023/09/14 07:36:31;;;;;;;13.82;11.32;;;;;;;;;;5012269;28;20716;-74
2023/09/14 07:38:59;;;;;;;12.40;11.10;;;;;;;;;;5007242;28;20204;-76
2023/09/14 07:41:26;;;;;;;14.95;11.77;;;;;;;;;;4994152;28;20326;-76
2023/09/14 07:43:54;;;;;;;12.95;11.50;;;;;;;;;;4994451;28;20209;-76
2023/09/14 07:46:22;;;;;;;13.38;11.70;;;;;;;;;;5015552;28;20808;-76
2023/09/14 07:48:49;;;;;;;12.60;11.18;;;;;;;;;;5006786;28;20203;-76
2023/09/14 07:51:16;;;;;;;12.27;11.00;;;;;;;;;;5011690;28;20233;-75
2023/09/14 07:53:44;;;;;;;14.70;13.18;;;;;;;;;;4994259;28;20203;-74
2023/09/14 07:56:13;;;;;;;11.98;10.55;;;;;;;;;;5011081;28;20270;-76
2023/09/14 07:58:40;;;;;;;12.75;10.93;;;;;;;;;;5011832;28;20286;-75
2023/09/14 08:01:07;;;;;;;12.73;10.40;;;;;;;;;;5011196;28;20238;-75
2023/09/14 08:03:34;;;;;;;13.10;10.23;;;;;;;;;;5011705;28;20579;-76
2023/09/14 08:06:02;;;;;;;11.68;9.90;;;;;;;;;;5009789;28;20200;-75
2023/09/14 08:08:29;;;;;;;11.10;9.90;;;;;;;;;;5011698;28;20571;-75
2023/09/14 08:10:57;;;;;;;10.75;9.52;;;;;;;;;;5011531;28;20650;-75
2023/09/14 08:13:24;;;;;;;12.68;10.18;;;;;;;;;;5011434;28;20211;-76
2023/09/14 08:15:51;;;;;;;10.70;9.60;;;;;;;;;;5011194;28;20207;-75
2023/09/14 08:18:21;;;;;;;10.63;9.25;;;;;;;;;;5011033;28;20211;-76
2023/09/14 08:20:49;;;;;;;10.30;8.82;;;;;;;;;;5008440;28;20234;-74
2023/09/14 08:23:16;;;;;;;10.40;9.02;;;;;;;;;;5011375;28;20641;-75
2023/09/14 08:25:47;;;;;;;8.60;7.70;;;;;;;;;;5010994;28;20752;-76
2023/09/14 08:28:15;;;;;;;10.30;8.88;;;;;;;;;;5010407;28;20207;-74
2023/09/14 08:30:42;;;;;;;9.80;8.25;;;;;;;;;;5010790;28;20215;-75
2023/09/14 08:33:13;;;;;;;8.13;7.32;;;;;;;;;;5006362;28;20282;-75
2023/09/14 08:35:47;;;;;;;10.35;8.20;;;;;;;;;;5010905;28;20214;-76
2023/09/14 08:38:14;;;;;;;8.18;7.38;;;;;;;;;;4992551;28;20226;-76
2023/09/14 08:40:45;;;;;;;8.18;7.30;;;;;;;;;;5006272;28;20208;-75
2023/09/14 08:43:13;;;;;;;8.07;7.28;;;;;;;;;;5010670;28;20662;-76
2023/09/14 08:45:42;;;;;;;9.05;7.95;;;;;;;;;;5010599;28;20210;-75
2023/09/14 08:48:10;;;;;;;9.30;7.95;;;;;;;;;;4992637;28;20243;-75
2023/09/14 08:50:40;;;;;;;8.60;7.80;;;;;;;;;;5006665;28;20577;-74
2023/09/14 08:53:08;;;;;;;8.43;7.47;;;;;;;;;;5010784;28;20661;-75
2023/09/14 08:55:36;;;;;;;9.38;8.13;;;;;;;;;;5009957;28;20195;-76
2023/09/14 08:58:03;;;;;;;7.35;6.65;;;;;;;;;;5010527;28;20602;-76
2023/09/14 09:00:31;;;;;;;8.50;7.45;;;;;;;;;;5010223;28;20207;-76
2023/09/14 09:02:59;;;;;;;7.88;7.18;;;;;;;;;;5010180;28;20227;-76
2023/09/14 09:05:27;;;;;;;8.38;7.47;;;;;;;;;;5009988;28;20214;-77
2023/09/14 09:07:55;;;;;;;8.00;7.20;;;;;;;;;;5008949;28;20208;-74
2023/09/14 09:10:27;;;;;;;7.40;6.57;;;;;;;;;;5007510;28;20811;-76
2023/09/14 09:12:56;;;;;;;8.30;7.15;;;;;;;;;;5009725;28;20235;-77
2023/09/14 09:15:27;;;;;;;8.13;6.97;;;;;;;;;;4993145;28;20215;-74
2023/09/14 09:17:55;;;;;;;8.23;7.25;;;;;;;;;;5005663;28;20211;-75
2023/09/14 09:20:23;;;;;;;7.97;7.18;;;;;;;;;;5009807;28;20239;-75
2023/09/14 09:22:51;;;;;;;8.43;7.55;;;;;;;;;;5009630;28;20501;-74
2023/09/14 09:25:20;;;;;;;8.05;7.25;;;;;;;;;;5024364;23;20208;-81
2023/09/14 09:27:47;;;;;;;9.52;8.52;;;;;;;;;;5036105;28;20207;-80
2023/09/14 09:30:15;;;;;;;8.18;6.82;;;;;;;;;;5043488;28;20237;-80
2023/09/14 09:32:43;;;;;;;6.82;6.13;;;;;;;;;;5035323;28;20207;-81
2023/09/14 09:35:18;;;;;;;8.40;7.60;;;;;;;;;;5036725;28;20268;-81
2023/09/14 09:37:45;;;;;;;7.65;6.47;;;;;;;;;;5017057;28;20208;-82
2023/09/14 09:40:16;;;;;;;6.88;6.18;;;;;;;;;;5013543;28;20208;-80
2023/09/14 09:42:44;;;;;;;7.18;6.47;;;;;;;;;;5020465;28;20307;-81
2023/09/14 09:45:12;;;;;;;6.80;6.13;;;;;;;;;;5021056;28;20202;-82
2023/09/14 09:47:40;;;;;;;7.45;6.70;;;;;;;;;;5011078;28;20204;-82
2023/09/14 09:50:11;;;;;;;6.68;6.07;;;;;;;;;;5033543;28;20198;-83
2023/09/14 09:52:39;;;;;;;14.68;9.90;;;;;;;;;;5017227;28;20517;-82
2023/09/14 09:55:07;;;;;;;23.15;16.63;;;;;;;;;;5021942;28;20205;-80
2023/09/14 09:57:38;;;;;;;7.90;6.22;;;;;;;;;;5024724;28;20242;-83
2023/09/14 10:00:13;;;;;;;10.15;8.80;;;;;;;;;;5023502;28;20277;-81
2023/09/14 10:02:41;;;;;;;7.70;6.38;;;;;;;;;;5023489;28;20606;-82
2023/09/14 10:05:11;;;;;;;15.50;9.85;;;;;;;;;;5033969;28;20207;-81
2023/09/14 10:07:42;;;;;;;7.00;6.22;;;;;;;;;;5016689;28;20196;-83
2023/09/14 10:10:10;;;;;;;7.47;6.18;;;;;;;;;;5022094;28;20203;-82
2023/09/14 10:12:41;;;;;;;10.00;7.90;;;;;;;;;;5017317;28;20243;-80
2023/09/14 10:15:09;;;;;;;14.82;9.57;;;;;;;;;;5025915;28;20253;-82
2023/09/14 10:17:36;;;;;;;7.50;6.68;;;;;;;;;;5019166;28;20212;-84
2023/09/14 10:20:11;;;;;;;7.28;6.63;;;;;;;;;;5021350;28;20290;-80
2023/09/14 10:22:41;;;;;;;31.50;17.25;;;;;;;;;;5018617;28;20255;-83
2023/09/14 10:25:08;;;;;;;7.30;6.60;;;;;;;;;;5024065;28;20199;-80
2023/09/14 10:27:36;;;;;;;6.18;5.18;;;;;;;;;;5021758;28;20235;-82
2023/09/14 10:30:05;;;;;;;6.95;5.97;;;;;;;;;;5029253;28;20199;-83
2023/09/14 10:32:34;;;;;;;6.75;6.00;;;;;;;;;;5018211;28;20271;-83
2023/09/14 10:35:02;;;;;;;6.15;5.57;;;;;;;;;;5033447;28;20214;-82
2023/09/14 10:37:35;;;;;;;5.88;5.28;;;;;;;;;;5020391;28;20200;-82
2023/09/14 10:40:04;;;;;;;6.53;5.40;;;;;;;;;;5024808;28;20637;-83
2023/09/14 10:42:32;;;;;;;6.07;4.60;;;;;;;;;;5027979;28;20246;-83
2023/09/14 10:44:59;;;;;;;5.70;5.20;;;;;;;;;;5030534;28;20211;-83
2023/09/14 10:47:33;;;;;;;5.53;5.05;;;;;;;;;;5028975;28;20721;-82
2023/09/14 10:50:01;;;;;;;5.38;4.60;;;;;;;;;;5019717;28;20684;-83
2023/09/14 10:52:29;;;;;;;6.03;5.40;;;;;;;;;;5021749;28;20261;-82
2023/09/14 10:54:57;;;;;;;5.72;5.22;;;;;;;;;;5032723;28;20209;-81
2023/09/14 10:57:25;;;;;;;3.28;2.97;;;;;;;;;;5031669;28;20607;-82
2023/09/14 10:59:53;;;;;;;5.95;4.65;;;;;;;;;;5028143;28;20589;-83
2023/09/14 11:02:39;;;;;;;4.30;3.10;;;;;;;;;;5034214;28;20227;-81
2023/09/14 11:05:17;;;;;;;4.70;4.15;;;;;;;;;;5027456;28;20198;-82
2023/09/14 11:07:55;;;;;;;4.50;4.10;;;;;;;;;;5022651;28;20208;-84
2023/09/14 11:10:23;;;;;;;3.97;3.58;;;;;;;;;;5026791;28;20199;-79
2023/09/14 11:12:52;;;;;;;3.20;2.88;;;;;;;;;;5029484;28;20204;-79
2023/09/14 11:15:21;;;;;;;3.60;3.00;;;;;;;;;;5024143;28;20689;-83
2023/09/14 11:17:52;;;;;;;3.03;2.72;;;;;;;;;;5028856;28;20630;-83
2023/09/14 11:20:21;;;;;;;3.35;3.05;;;;;;;;;;5036090;28;20293;-80
2023/09/14 11:22:51;;;;;;;2.53;2.38;;;;;;;;;;5030328;28;20247;-79
2023/09/14 11:25:25;;;;;;;2.72;2.40;;;;;;;;;;5043840;28;20225;-84
2023/09/14 11:28:01;;;;;;;2.53;2.33;;;;;;;;;;5029144;28;20199;-81
2023/09/14 11:30:30;;;;;;;4.50;2.38;;;;;;;;;;5033276;28;20209;-81
2023/09/14 11:33:03;;;;;;;2.90;2.40;;;;;;;;;;5031180;28;20203;-82
2023/09/14 11:35:40;;;;;;;2.95;2.75;;;;;;;;;;5034392;28;20241;-79
2023/09/14 11:38:23;;;;;;;2.20;2.00;;;;;;;;;;5024497;28;20246;-82
2023/09/14 11:41:29;;;;;;;4.55;3.97;;;;;;;;;;5030554;28;20203;-81
2023/09/14 11:44:04;;;;;;;2.63;2.42;;;;;;;;;;5033726;28;20203;-82
2023/09/14 11:46:52;;;;;;;2.53;2.30;;;;;;;;;;5033516;28;20291;-81
2023/09/14 11:49:27;;;;;;;2.30;2.10;;;;;;;;;;5028924;28;20677;-82
2023/09/14 11:51:54;;;;;;;2.58;2.30;;;;;;;;;;5029475;28;20268;-81
2023/09/14 11:54:22;;;;;;;2.08;1.98;;;;;;;;;;5028879;28;20590;-82
2023/09/14 11:56:49;;;;;;;6.93;2.35;;;;;;;;;;5030277;28;20227;-82
2023/09/14 11:59:28;;;;;;;2.10;1.90;;;;;;;;;;5032360;28;20211;-83
2023/09/14 12:01:55;;;;;;;1.90;1.80;;;;;;;;;;5028068;28;20238;-80
2023/09/14 12:04:25;;;;;;;2.00;1.90;;;;;;;;;;5032993;28;20264;-81
2023/09/14 12:06:52;;;;;;;2.20;2.00;;;;;;;;;;5028520;28;20224;-82
2023/09/14 12:09:32;;;;;;;2.80;2.60;;;;;;;;;;5035579;28;20217;-82
2023/09/14 12:12:09;;;;;;;2.35;2.25;;;;;;;;;;5025300;28;20211;-83
2023/09/14 12:14:40;;;;;;;2.20;1.92;;;;;;;;;;5025693;28;20606;-83
2023/09/14 12:17:20;;;;;;;2.30;2.10;;;;;;;;;;5027809;28;20732;-83
2023/09/14 12:19:56;;;;;;;2.42;2.22;;;;;;;;;;5029820;28;20203;-82
2023/09/14 12:22:24;;;;;;;2.30;2.10;;;;;;;;;;5026356;28;20226;-82
2023/09/14 12:24:51;;;;;;;2.13;1.98;;;;;;;;;;5032934;28;20200;-82
2023/09/14 12:27:19;;;;;;;3.17;2.30;;;;;;;;;;5027941;28;20234;-83
2023/09/14 12:29:47;;;;;;;2.53;2.10;;;;;;;;;;5022780;28;20231;-81
2023/09/14 12:32:15;;;;;;;2.60;2.40;;;;;;;;;;5027932;28;20636;-82
2023/09/14 12:34:43;;;;;;;2.35;2.15;;;;;;;;;;5020547;28;20212;-83
2023/09/14 12:37:10;;;;;;;2.60;2.40;;;;;;;;;;5023734;28;20234;-82
2023/09/14 12:39:39;;;;;;;2.30;2.10;;;;;;;;;;5026031;28;20211;-83
2023/09/14 12:42:06;;;;;;;2.30;2.10;;;;;;;;;;5022803;28;20309;-82
2023/09/14 12:44:33;;;;;;;2.05;1.95;;;;;;;;;;5020293;28;20253;-82
2023/09/14 12:47:01;;;;;;;4.18;3.65;;;;;;;;;;5012529;28;20222;-82
2023/09/14 12:49:28;;;;;;;2.10;1.90;;;;;;;;;;5025010;28;20577;-81
2023/09/14 12:51:55;;;;;;;2.40;2.20;;;;;;;;;;5026597;28;20211;-83
2023/09/14 12:54:24;;;;;;;2.60;2.40;;;;;;;;;;5023821;28;20760;-81
2023/09/14 12:56:51;;;;;;;2.80;2.30;;;;;;;;;;5020900;28;20274;-82
2023/09/14 12:59:19;;;;;;;2.88;2.30;;;;;;;;;;5019966;28;20882;-81
2023/09/14 13:01:47;;;;;;;3.15;2.85;;;;;;;;;;5013415;28;20250;-83
2023/09/14 13:04:15;;;;;;;3.38;2.38;;;;;;;;;;5028998;28;20203;-82
2023/09/14 13:06:43;;;;;;;3.10;2.33;;;;;;;;;;5027871;28;20237;-83
2023/09/14 13:09:15;;;;;;;2.40;2.28;;;;;;;;;;5030112;28;20206;-84
2023/09/14 13:11:50;;;;;;;2.78;2.30;;;;;;;;;;5019513;28;20200;-83
2023/09/14 13:14:23;;;;;;;2.35;2.15;;;;;;;;;;5028200;28;20210;-82
2023/09/14 13:16:54;;;;;;;2.17;2.08;;;;;;;;;;5027796;28;20215;-82
2023/09/14 13:19:25;;;;;;;3.78;3.30;;;;;;;;;;5030671;28;20242;-81
2023/09/14 13:21:53;;;;;;;3.53;2.53;;;;;;;;;;5028454;28;20239;-81
2023/09/14 13:24:21;;;;;;;2.65;2.45;;;;;;;;;;5031133;28;20203;-83
2023/09/14 13:26:49;;;;;;;2.78;2.58;;;;;;;;;;5023612;28;20228;-84
2023/09/14 13:29:18;;;;;;;3.90;2.88;;;;;;;;;;5034916;28;20225;-84
2023/09/14 13:31:46;;;;;;;3.33;3.03;;;;;;;;;;5026152;28;20200;-81
2023/09/14 13:34:14;;;;;;;3.20;3.00;;;;;;;;;;5030156;28;20206;-83
2023/09/14 13:36:41;;;;;;;3.03;2.60;;;;;;;;;;5011131;28;20232;-83
2023/09/14 13:39:08;;;;;;;4.82;3.72;;;;;;;;;;5027440;28;20283;-83
2023/09/14 13:41:35;;;;;;;3.47;3.17;;;;;;;;;;5019560;28;20207;-81
2023/09/14 13:44:02;;;;;;;3.67;2.60;;;;;;;;;;5018044;28;20276;-83
2023/09/14 13:46:30;;;;;;;2.55;2.35;;;;;;;;;;5023894;28;20702;-83
2023/09/14 13:48:57;;;;;;;3.38;2.33;;;;;;;;;;5025673;28;20221;-80
2023/09/14 13:51:24;;;;;;;3.30;2.60;;;;;;;;;;5022108;28;20264;-83
2023/09/14 13:53:52;;;;;;;2.67;2.42;;;;;;;;;;5025407;28;20678;-82
2023/09/14 13:56:19;;;;;;;2.88;2.50;;;;;;;;;;5026803;28;20284;-81
2023/09/14 13:58:46;;;;;;;2.08;1.98;;;;;;;;;;5029680;28;20208;-84
2023/09/14 14:01:14;;;;;;;3.13;2.10;;;;;;;;;;5027219;28;20242;-83
2023/09/14 14:03:41;;;;;;;4.60;2.35;;;;;;;;;;5023267;28;20242;-81
2023/09/14 14:06:09;;;;;;;1.88;1.77;;;;;;;;;;5021412;28;20223;-82
2023/09/14 14:08:36;;;;;;;2.25;2.10;;;;;;;;;;5026043;28;20260;-81
2023/09/14 14:11:03;;;;;;;3.63;2.30;;;;;;;;;;5032570;28;20206;-84
2023/09/14 14:13:30;;;;;;;3.20;2.38;;;;;;;;;;5029479;28;20210;-82
2023/09/14 14:15:58;;;;;;;2.40;2.00;;;;;;;;;;5030652;28;20215;-79
2023/09/14 14:18:25;;;;;;;2.80;2.50;;;;;;;;;;5031770;28;20234;-85
2023/09/14 14:20:53;;;;;;;1.88;1.77;;;;;;;;;;5021831;28;20208;-84
2023/09/14 14:23:21;;;;;;;2.00;1.85;;;;;;;;;;5030479;28;20227;-80
2023/09/14 14:25:48;;;;;;;2.58;2.17;;;;;;;;;;5023703;28;20255;-79
2023/09/14 14:28:15;;;;;;;2.70;1.80;;;;;;;;;;5028697;28;20203;-84
2023/09/14 14:30:42;;;;;;;2.97;2.35;;;;;;;;;;5016002;28;20248;-81
2023/09/14 14:33:10;;;;;;;2.10;1.90;;;;;;;;;;5020232;28;20211;-83
2023/09/14 14:35:37;;;;;;;2.45;1.95;;;;;;;;;;5027916;28;20231;-81